sensor_id;sensor_type;location;lat;lon;timestamp;P1;durP1;ratioP1;P2;durP2;ratioP2
39848;SDS011;25518;47.878;15.914;2022-07-23T00:01:04;12.80;;;8.60;;
39848;SDS011;25518;47.878;15.914;2022-07-23T00:03:31;9.65;;;8.48;;
39848;SDS011;25518;47.878;15.914;2022-07-23T00:05:57;9.55;;;7.95;;
39848;SDS011;25518;47.878;15.914;2022-07-23T00:08:23;10.18;;;8.27;;
39848;SDS011;25518;47.878;15.914;2022-07-23T00:10:49;9.88;;;8.20;;
39848;SDS011;25518;47.878;15.914;2022-07-23T00:13:15;10.70;;;8.07;;
39848;SDS011;25518;47.878;15.914;2022-07-23T00:15:42;10.70;;;8.10;;
39848;SDS011;25518;47.878;15.914;2022-07-23T00:18:08;10.60;;;7.93;;
39848;SDS011;25518;47.878;15.914;2022-07-23T00:20:34;10.00;;;8.23;;
39848;SDS011;25518;47.878;15.914;2022-07-23T00:23:00;10.30;;;7.80;;
39848;SDS011;25518;47.878;15.914;2022-07-23T00:25:27;11.10;;;7.85;;
39848;SDS011;25518;47.878;15.914;2022-07-23T00:27:54;11.98;;;7.90;;
39848;SDS011;25518;47.878;15.914;2022-07-23T00:30:20;10.65;;;8.00;;
39848;SDS011;25518;47.878;15.914;2022-07-23T00:32:48;10.60;;;8.10;;
39848;SDS011;25518;47.878;15.914;2022-07-23T00:35:15;9.40;;;7.80;;
39848;SDS011;25518;47.878;15.914;2022-07-23T00:37:42;10.40;;;8.00;;
39848;SDS011;25518;47.878;15.914;2022-07-23T00:40:08;10.15;;;8.75;;
39848;SDS011;25518;47.878;15.914;2022-07-23T00:42:35;11.18;;;8.48;;
39848;SDS011;25518;47.878;15.914;2022-07-23T00:45:01;8.85;;;7.68;;
39848;SDS011;25518;47.878;15.914;2022-07-23T00:47:27;10.90;;;8.53;;
39848;SDS011;25518;47.878;15.914;2022-07-23T00:49:54;9.70;;;7.95;;
39848;SDS011;25518;47.878;15.914;2022-07-23T00:52:20;9.23;;;7.60;;
39848;SDS011;25518;47.878;15.914;2022-07-23T00:54:46;10.32;;;7.72;;
39848;SDS011;25518;47.878;15.914;2022-07-23T00:57:13;8.80;;;7.75;;
39848;SDS011;25518;47.878;15.914;2022-07-23T00:59:40;10.45;;;8.00;;
39848;SDS011;25518;47.878;15.914;2022-07-23T01:02:06;9.65;;;8.05;;
39848;SDS011;25518;47.878;15.914;2022-07-23T01:04:32;9.35;;;8.30;;
39848;SDS011;25518;47.878;15.914;2022-07-23T01:06:59;9.50;;;7.93;;
39848;SDS011;25518;47.878;15.914;2022-07-23T01:09:26;10.23;;;8.20;;
39848;SDS011;25518;47.878;15.914;2022-07-23T01:11:53;9.95;;;8.55;;
39848;SDS011;25518;47.878;15.914;2022-07-23T01:14:20;11.02;;;9.05;;
39848;SDS011;25518;47.878;15.914;2022-07-23T01:16:48;9.90;;;8.48;;
39848;SDS011;25518;47.878;15.914;2022-07-23T01:19:15;9.68;;;7.95;;
39848;SDS011;25518;47.878;15.914;2022-07-23T01:21:43;10.95;;;8.45;;
39848;SDS011;25518;47.878;15.914;2022-07-23T01:24:09;9.35;;;7.90;;
39848;SDS011;25518;47.878;15.914;2022-07-23T01:26:37;9.57;;;7.82;;
39848;SDS011;25518;47.878;15.914;2022-07-23T01:29:03;9.85;;;7.70;;
39848;SDS011;25518;47.878;15.914;2022-07-23T01:31:30;10.48;;;7.88;;
39848;SDS011;25518;47.878;15.914;2022-07-23T01:33:57;10.55;;;7.53;;
39848;SDS011;25518;47.878;15.914;2022-07-23T01:36:23;10.05;;;8.38;;
39848;SDS011;25518;47.878;15.914;2022-07-23T01:38:50;9.45;;;8.32;;
39848;SDS011;25518;47.878;15.914;2022-07-23T01:41:16;10.10;;;8.20;;
39848;SDS011;25518;47.878;15.914;2022-07-23T01:43:42;9.90;;;7.90;;
39848;SDS011;25518;47.878;15.914;2022-07-23T01:46:09;10.13;;;8.38;;
39848;SDS011;25518;47.878;15.914;2022-07-23T01:48:35;9.77;;;7.35;;
39848;SDS011;25518;47.878;15.914;2022-07-23T01:51:01;10.75;;;8.10;;
39848;SDS011;25518;47.878;15.914;2022-07-23T01:53:27;13.40;;;8.45;;
39848;SDS011;25518;47.878;15.914;2022-07-23T01:55:56;12.87;;;8.20;;
39848;SDS011;25518;47.878;15.914;2022-07-23T01:58:23;10.52;;;8.15;;
39848;SDS011;25518;47.878;15.914;2022-07-23T02:00:50;8.73;;;7.47;;
39848;SDS011;25518;47.878;15.914;2022-07-23T02:03:16;9.55;;;7.65;;
39848;SDS011;25518;47.878;15.914;2022-07-23T02:05:42;9.27;;;7.55;;
39848;SDS011;25518;47.878;15.914;2022-07-23T02:08:08;10.77;;;7.63;;
39848;SDS011;25518;47.878;15.914;2022-07-23T02:10:34;9.90;;;8.23;;
39848;SDS011;25518;47.878;15.914;2022-07-23T02:13:01;11.80;;;8.50;;
39848;SDS011;25518;47.878;15.914;2022-07-23T02:15:27;10.63;;;8.90;;
39848;SDS011;25518;47.878;15.914;2022-07-23T02:17:54;11.47;;;8.70;;
39848;SDS011;25518;47.878;15.914;2022-07-23T02:20:21;11.32;;;8.48;;
39848;SDS011;25518;47.878;15.914;2022-07-23T02:22:48;10.33;;;8.20;;
39848;SDS011;25518;47.878;15.914;2022-07-23T02:25:14;11.38;;;8.90;;
39848;SDS011;25518;47.878;15.914;2022-07-23T02:27:40;9.77;;;8.35;;
39848;SDS011;25518;47.878;15.914;2022-07-23T02:30:07;9.35;;;8.07;;
39848;SDS011;25518;47.878;15.914;2022-07-23T02:32:34;9.05;;;7.95;;
39848;SDS011;25518;47.878;15.914;2022-07-23T02:35:01;10.38;;;7.82;;
39848;SDS011;25518;47.878;15.914;2022-07-23T02:37:27;9.13;;;7.80;;
39848;SDS011;25518;47.878;15.914;2022-07-23T02:39:53;9.77;;;7.73;;
39848;SDS011;25518;47.878;15.914;2022-07-23T02:42:20;9.30;;;7.40;;
39848;SDS011;25518;47.878;15.914;2022-07-23T02:44:46;11.23;;;8.15;;
39848;SDS011;25518;47.878;15.914;2022-07-23T02:47:12;9.40;;;7.68;;
39848;SDS011;25518;47.878;15.914;2022-07-23T02:49:38;11.15;;;7.78;;
39848;SDS011;25518;47.878;15.914;2022-07-23T02:52:04;10.60;;;8.00;;
39848;SDS011;25518;47.878;15.914;2022-07-23T02:54:31;10.77;;;8.10;;
39848;SDS011;25518;47.878;15.914;2022-07-23T02:56:57;10.93;;;7.35;;
39848;SDS011;25518;47.878;15.914;2022-07-23T02:59:23;9.80;;;7.53;;
39848;SDS011;25518;47.878;15.914;2022-07-23T03:01:49;10.52;;;7.78;;
39848;SDS011;25518;47.878;15.914;2022-07-23T03:04:15;10.27;;;7.70;;
39848;SDS011;25518;47.878;15.914;2022-07-23T03:06:42;10.40;;;7.60;;
39848;SDS011;25518;47.878;15.914;2022-07-23T03:09:08;9.10;;;7.75;;
39848;SDS011;25518;47.878;15.914;2022-07-23T03:26:11;8.35;;;7.18;;
39848;SDS011;25518;47.878;15.914;2022-07-23T03:28:37;9.73;;;7.63;;
39848;SDS011;25518;47.878;15.914;2022-07-23T03:31:03;8.63;;;7.20;;
39848;SDS011;25518;47.878;15.914;2022-07-23T03:33:30;9.25;;;7.25;;
39848;SDS011;25518;47.878;15.914;2022-07-23T03:35:56;9.37;;;7.33;;
39848;SDS011;25518;47.878;15.914;2022-07-23T03:38:22;8.88;;;6.97;;
39848;SDS011;25518;47.878;15.914;2022-07-23T03:40:48;9.82;;;7.55;;
39848;SDS011;25518;47.878;15.914;2022-07-23T03:43:14;9.23;;;7.43;;
39848;SDS011;25518;47.878;15.914;2022-07-23T03:45:41;10.35;;;7.32;;
39848;SDS011;25518;47.878;15.914;2022-07-23T03:48:07;10.65;;;7.72;;
39848;SDS011;25518;47.878;15.914;2022-07-23T03:50:33;10.15;;;6.82;;
39848;SDS011;25518;47.878;15.914;2022-07-23T03:53:00;9.90;;;6.95;;
39848;SDS011;25518;47.878;15.914;2022-07-23T03:55:26;8.32;;;6.85;;
39848;SDS011;25518;47.878;15.914;2022-07-23T03:57:52;9.50;;;7.03;;
39848;SDS011;25518;47.878;15.914;2022-07-23T04:00:18;8.27;;;6.83;;
39848;SDS011;25518;47.878;15.914;2022-07-23T04:02:44;8.80;;;7.20;;
39848;SDS011;25518;47.878;15.914;2022-07-23T04:05:11;8.10;;;6.88;;
39848;SDS011;25518;47.878;15.914;2022-07-23T04:07:37;7.95;;;6.82;;
39848;SDS011;25518;47.878;15.914;2022-07-23T04:10:03;8.10;;;6.47;;
39848;SDS011;25518;47.878;15.914;2022-07-23T04:12:30;8.75;;;6.70;;
39848;SDS011;25518;47.878;15.914;2022-07-23T04:14:56;10.07;;;7.18;;
39848;SDS011;25518;47.878;15.914;2022-07-23T04:17:22;10.53;;;7.90;;
39848;SDS011;25518;47.878;15.914;2022-07-23T04:19:48;9.30;;;7.03;;
39848;SDS011;25518;47.878;15.914;2022-07-23T04:22:15;8.60;;;7.10;;
39848;SDS011;25518;47.878;15.914;2022-07-23T04:24:41;7.20;;;6.30;;
39848;SDS011;25518;47.878;15.914;2022-07-23T04:27:07;8.93;;;6.35;;
39848;SDS011;25518;47.878;15.914;2022-07-23T04:29:33;9.85;;;6.95;;
39848;SDS011;25518;47.878;15.914;2022-07-23T04:31:59;8.70;;;6.77;;
39848;SDS011;25518;47.878;15.914;2022-07-23T04:34:26;9.13;;;7.18;;
39848;SDS011;25518;47.878;15.914;2022-07-23T04:36:52;8.90;;;7.07;;
39848;SDS011;25518;47.878;15.914;2022-07-23T04:39:19;8.90;;;6.68;;
39848;SDS011;25518;47.878;15.914;2022-07-23T04:41:45;10.65;;;8.13;;
39848;SDS011;25518;47.878;15.914;2022-07-23T04:44:11;11.57;;;7.68;;
39848;SDS011;25518;47.878;15.914;2022-07-23T04:46:38;8.45;;;7.13;;
39848;SDS011;25518;47.878;15.914;2022-07-23T04:49:04;10.57;;;7.60;;
39848;SDS011;25518;47.878;15.914;2022-07-23T04:51:30;10.18;;;7.03;;
39848;SDS011;25518;47.878;15.914;2022-07-23T04:53:56;9.17;;;7.63;;
39848;SDS011;25518;47.878;15.914;2022-07-23T04:56:22;9.68;;;7.32;;
39848;SDS011;25518;47.878;15.914;2022-07-23T04:58:49;9.40;;;7.43;;
39848;SDS011;25518;47.878;15.914;2022-07-23T05:01:15;10.07;;;7.88;;
39848;SDS011;25518;47.878;15.914;2022-07-23T05:03:41;9.50;;;8.20;;
39848;SDS011;25518;47.878;15.914;2022-07-23T05:06:07;9.83;;;8.30;;
39848;SDS011;25518;47.878;15.914;2022-07-23T05:08:34;10.77;;;8.03;;
39848;SDS011;25518;47.878;15.914;2022-07-23T05:11:01;10.50;;;8.00;;
39848;SDS011;25518;47.878;15.914;2022-07-23T05:13:27;8.70;;;7.22;;
39848;SDS011;25518;47.878;15.914;2022-07-23T05:15:53;9.93;;;8.05;;
39848;SDS011;25518;47.878;15.914;2022-07-23T05:18:19;10.27;;;8.07;;
39848;SDS011;25518;47.878;15.914;2022-07-23T05:20:45;9.63;;;7.97;;
39848;SDS011;25518;47.878;15.914;2022-07-23T05:23:12;8.90;;;7.68;;
39848;SDS011;25518;47.878;15.914;2022-07-23T05:25:39;10.05;;;7.88;;
39848;SDS011;25518;47.878;15.914;2022-07-23T05:28:05;11.25;;;8.30;;
39848;SDS011;25518;47.878;15.914;2022-07-23T05:30:32;10.55;;;8.27;;
39848;SDS011;25518;47.878;15.914;2022-07-23T05:32:58;8.70;;;7.13;;
39848;SDS011;25518;47.878;15.914;2022-07-23T05:35:24;10.55;;;8.10;;
39848;SDS011;25518;47.878;15.914;2022-07-23T05:37:50;9.13;;;7.70;;
39848;SDS011;25518;47.878;15.914;2022-07-23T05:40:18;9.50;;;7.75;;
39848;SDS011;25518;47.878;15.914;2022-07-23T05:42:44;9.30;;;7.55;;
39848;SDS011;25518;47.878;15.914;2022-07-23T05:45:10;10.15;;;7.18;;
39848;SDS011;25518;47.878;15.914;2022-07-23T05:50:06;8.50;;;6.93;;
39848;SDS011;25518;47.878;15.914;2022-07-23T05:52:33;9.40;;;6.88;;
39848;SDS011;25518;47.878;15.914;2022-07-23T05:54:59;8.52;;;7.07;;
39848;SDS011;25518;47.878;15.914;2022-07-23T05:57:25;7.78;;;6.30;;
39848;SDS011;25518;47.878;15.914;2022-07-23T05:59:51;8.75;;;6.32;;
39848;SDS011;25518;47.878;15.914;2022-07-23T06:02:17;7.40;;;5.93;;
39848;SDS011;25518;47.878;15.914;2022-07-23T06:04:44;7.55;;;5.10;;
39848;SDS011;25518;47.878;15.914;2022-07-23T06:07:11;6.55;;;5.03;;
39848;SDS011;25518;47.878;15.914;2022-07-23T06:09:37;6.75;;;5.22;;
39848;SDS011;25518;47.878;15.914;2022-07-23T06:12:03;7.55;;;4.90;;
39848;SDS011;25518;47.878;15.914;2022-07-23T06:14:30;8.80;;;5.47;;
39848;SDS011;25518;47.878;15.914;2022-07-23T06:16:56;7.68;;;5.10;;
39848;SDS011;25518;47.878;15.914;2022-07-23T06:19:22;6.50;;;5.28;;
39848;SDS011;25518;47.878;15.914;2022-07-23T06:21:49;6.32;;;4.68;;
39848;SDS011;25518;47.878;15.914;2022-07-23T06:24:15;5.80;;;4.53;;
39848;SDS011;25518;47.878;15.914;2022-07-23T06:26:41;4.70;;;3.65;;
39848;SDS011;25518;47.878;15.914;2022-07-23T06:29:07;5.60;;;4.10;;
39848;SDS011;25518;47.878;15.914;2022-07-23T06:31:34;5.43;;;3.83;;
39848;SDS011;25518;47.878;15.914;2022-07-23T06:34:00;5.10;;;3.70;;
39848;SDS011;25518;47.878;15.914;2022-07-23T06:36:26;5.78;;;3.40;;
39848;SDS011;25518;47.878;15.914;2022-07-23T06:38:52;6.65;;;3.75;;
39848;SDS011;25518;47.878;15.914;2022-07-23T06:41:19;5.97;;;4.35;;
39848;SDS011;25518;47.878;15.914;2022-07-23T06:43:45;5.80;;;3.53;;
39848;SDS011;25518;47.878;15.914;2022-07-23T06:46:11;5.07;;;3.63;;
39848;SDS011;25518;47.878;15.914;2022-07-23T06:48:37;5.47;;;3.72;;
39848;SDS011;25518;47.878;15.914;2022-07-23T06:51:03;5.23;;;3.83;;
39848;SDS011;25518;47.878;15.914;2022-07-23T06:53:30;7.70;;;4.18;;
39848;SDS011;25518;47.878;15.914;2022-07-23T06:55:56;5.25;;;3.67;;
39848;SDS011;25518;47.878;15.914;2022-07-23T06:58:23;5.43;;;3.33;;
39848;SDS011;25518;47.878;15.914;2022-07-23T07:00:49;5.25;;;3.45;;
39848;SDS011;25518;47.878;15.914;2022-07-23T07:03:17;4.60;;;3.40;;
39848;SDS011;25518;47.878;15.914;2022-07-23T07:05:44;4.60;;;3.30;;
39848;SDS011;25518;47.878;15.914;2022-07-23T07:08:10;4.40;;;3.17;;
39848;SDS011;25518;47.878;15.914;2022-07-23T07:10:37;5.53;;;2.90;;
39848;SDS011;25518;47.878;15.914;2022-07-23T07:13:03;4.17;;;2.97;;
39848;SDS011;25518;47.878;15.914;2022-07-23T07:15:30;4.97;;;3.30;;
39848;SDS011;25518;47.878;15.914;2022-07-23T07:17:56;4.82;;;3.25;;
39848;SDS011;25518;47.878;15.914;2022-07-23T07:20:22;4.15;;;2.90;;
39848;SDS011;25518;47.878;15.914;2022-07-23T07:22:49;5.17;;;3.37;;
39848;SDS011;25518;47.878;15.914;2022-07-23T07:25:15;5.15;;;3.00;;
39848;SDS011;25518;47.878;15.914;2022-07-23T07:27:41;4.22;;;2.80;;
39848;SDS011;25518;47.878;15.914;2022-07-23T07:30:10;3.92;;;2.90;;
39848;SDS011;25518;47.878;15.914;2022-07-23T07:32:36;3.63;;;2.70;;
39848;SDS011;25518;47.878;15.914;2022-07-23T07:35:03;5.85;;;2.72;;
39848;SDS011;25518;47.878;15.914;2022-07-23T07:37:30;4.32;;;2.88;;
39848;SDS011;25518;47.878;15.914;2022-07-23T07:39:57;3.92;;;2.70;;
39848;SDS011;25518;47.878;15.914;2022-07-23T07:42:23;3.83;;;2.60;;
39848;SDS011;25518;47.878;15.914;2022-07-23T07:44:50;3.97;;;2.90;;
39848;SDS011;25518;47.878;15.914;2022-07-23T07:47:16;4.55;;;2.92;;
39848;SDS011;25518;47.878;15.914;2022-07-23T07:49:42;4.00;;;2.70;;
39848;SDS011;25518;47.878;15.914;2022-07-23T07:52:09;4.05;;;2.90;;
39848;SDS011;25518;47.878;15.914;2022-07-23T07:54:35;4.78;;;2.85;;
39848;SDS011;25518;47.878;15.914;2022-07-23T07:57:02;4.50;;;2.72;;
39848;SDS011;25518;47.878;15.914;2022-07-23T07:59:28;5.28;;;3.05;;
39848;SDS011;25518;47.878;15.914;2022-07-23T08:01:55;4.05;;;2.72;;
39848;SDS011;25518;47.878;15.914;2022-07-23T08:04:21;3.97;;;3.10;;
39848;SDS011;25518;47.878;15.914;2022-07-23T08:06:47;4.57;;;2.80;;
39848;SDS011;25518;47.878;15.914;2022-07-23T08:09:13;4.10;;;2.80;;
39848;SDS011;25518;47.878;15.914;2022-07-23T08:11:39;4.25;;;2.90;;
39848;SDS011;25518;47.878;15.914;2022-07-23T08:14:06;3.83;;;2.87;;
39848;SDS011;25518;47.878;15.914;2022-07-23T08:16:32;4.18;;;2.92;;
39848;SDS011;25518;47.878;15.914;2022-07-23T08:18:58;4.10;;;2.80;;
39848;SDS011;25518;47.878;15.914;2022-07-23T08:21:24;4.30;;;2.95;;
39848;SDS011;25518;47.878;15.914;2022-07-23T08:23:50;3.83;;;2.72;;
39848;SDS011;25518;47.878;15.914;2022-07-23T08:26:17;7.30;;;4.00;;
39848;SDS011;25518;47.878;15.914;2022-07-23T08:28:43;4.13;;;2.70;;
39848;SDS011;25518;47.878;15.914;2022-07-23T08:31:09;3.67;;;2.80;;
39848;SDS011;25518;47.878;15.914;2022-07-23T08:33:37;5.10;;;2.72;;
39848;SDS011;25518;47.878;15.914;2022-07-23T08:36:03;5.40;;;3.27;;
39848;SDS011;25518;47.878;15.914;2022-07-23T08:38:30;4.60;;;3.10;;
39848;SDS011;25518;47.878;15.914;2022-07-23T08:40:57;4.07;;;2.90;;
39848;SDS011;25518;47.878;15.914;2022-07-23T08:43:25;4.05;;;2.75;;
39848;SDS011;25518;47.878;15.914;2022-07-23T08:45:52;5.55;;;3.50;;
39848;SDS011;25518;47.878;15.914;2022-07-23T08:48:22;4.03;;;2.85;;
39848;SDS011;25518;47.878;15.914;2022-07-23T08:50:51;4.18;;;2.92;;
39848;SDS011;25518;47.878;15.914;2022-07-23T08:53:18;6.23;;;3.60;;
39848;SDS011;25518;47.878;15.914;2022-07-23T08:55:45;4.50;;;3.03;;
39848;SDS011;25518;47.878;15.914;2022-07-23T08:58:12;4.68;;;3.25;;
39848;SDS011;25518;47.878;15.914;2022-07-23T09:00:38;5.07;;;3.25;;
39848;SDS011;25518;47.878;15.914;2022-07-23T09:03:04;4.43;;;3.20;;
39848;SDS011;25518;47.878;15.914;2022-07-23T09:05:31;4.10;;;2.80;;
39848;SDS011;25518;47.878;15.914;2022-07-23T09:08:04;4.97;;;3.35;;
39848;SDS011;25518;47.878;15.914;2022-07-23T09:10:34;5.03;;;3.03;;
39848;SDS011;25518;47.878;15.914;2022-07-23T09:15:52;5.28;;;3.45;;
39848;SDS011;25518;47.878;15.914;2022-07-23T09:18:18;5.22;;;3.45;;
39848;SDS011;25518;47.878;15.914;2022-07-23T09:20:44;4.85;;;3.25;;
39848;SDS011;25518;47.878;15.914;2022-07-23T09:23:10;4.83;;;3.33;;
39848;SDS011;25518;47.878;15.914;2022-07-23T09:25:37;4.60;;;3.20;;
39848;SDS011;25518;47.878;15.914;2022-07-23T09:28:03;4.57;;;3.38;;
39848;SDS011;25518;47.878;15.914;2022-07-23T09:30:32;5.13;;;3.17;;
39848;SDS011;25518;47.878;15.914;2022-07-23T09:33:07;4.55;;;3.38;;
39848;SDS011;25518;47.878;15.914;2022-07-23T09:36:04;4.40;;;3.28;;
39848;SDS011;25518;47.878;15.914;2022-07-23T09:38:22;4.60;;;3.33;;
39848;SDS011;25518;47.878;15.914;2022-07-23T09:41:05;5.00;;;3.50;;
39848;SDS011;25518;47.878;15.914;2022-07-23T09:43:31;5.55;;;3.50;;
39848;SDS011;25518;47.878;15.914;2022-07-23T09:46:28;4.53;;;3.28;;
39848;SDS011;25518;47.878;15.914;2022-07-23T09:48:44;6.43;;;4.15;;
39848;SDS011;25518;47.878;15.914;2022-07-23T09:51:11;5.03;;;3.65;;
39848;SDS011;25518;47.878;15.914;2022-07-23T09:53:42;5.13;;;3.47;;
39848;SDS011;25518;47.878;15.914;2022-07-23T09:56:08;5.38;;;3.78;;
39848;SDS011;25518;47.878;15.914;2022-07-23T09:58:35;5.55;;;3.50;;
39848;SDS011;25518;47.878;15.914;2022-07-23T10:01:09;6.07;;;3.67;;
39848;SDS011;25518;47.878;15.914;2022-07-23T10:03:35;5.60;;;3.90;;
39848;SDS011;25518;47.878;15.914;2022-07-23T10:06:02;5.20;;;3.97;;
39848;SDS011;25518;47.878;15.914;2022-07-23T10:08:28;5.10;;;3.72;;
39848;SDS011;25518;47.878;15.914;2022-07-23T10:10:56;6.43;;;4.18;;
39848;SDS011;25518;47.878;15.914;2022-07-23T10:13:23;5.72;;;4.07;;
39848;SDS011;25518;47.878;15.914;2022-07-23T10:16:10;5.65;;;3.80;;
39848;SDS011;25518;47.878;15.914;2022-07-23T10:18:36;4.60;;;3.65;;
39848;SDS011;25518;47.878;15.914;2022-07-23T10:21:04;6.78;;;3.95;;
39848;SDS011;25518;47.878;15.914;2022-07-23T10:23:34;5.07;;;3.80;;
39848;SDS011;25518;47.878;15.914;2022-07-23T10:28:40;6.90;;;4.40;;
39848;SDS011;25518;47.878;15.914;2022-07-23T10:31:12;6.13;;;4.22;;
39848;SDS011;25518;47.878;15.914;2022-07-23T10:36:09;5.63;;;4.10;;
39848;SDS011;25518;47.878;15.914;2022-07-23T10:41:06;4.93;;;3.65;;
39848;SDS011;25518;47.878;15.914;2022-07-23T10:43:32;6.47;;;4.07;;
39848;SDS011;25518;47.878;15.914;2022-07-23T10:46:28;5.50;;;3.90;;
39848;SDS011;25518;47.878;15.914;2022-07-23T10:48:44;5.47;;;3.97;;
39848;SDS011;25518;47.878;15.914;2022-07-23T10:51:12;5.63;;;4.00;;
39848;SDS011;25518;47.878;15.914;2022-07-23T10:53:55;5.65;;;3.97;;
39848;SDS011;25518;47.878;15.914;2022-07-23T10:59:08;8.23;;;5.25;;
39848;SDS011;25518;47.878;15.914;2022-07-23T11:01:35;7.63;;;5.15;;
39848;SDS011;25518;47.878;15.914;2022-07-23T11:04:02;7.00;;;4.88;;
39848;SDS011;25518;47.878;15.914;2022-07-23T11:09:46;5.07;;;3.60;;
39848;SDS011;25518;47.878;15.914;2022-07-23T11:12:32;7.40;;;4.90;;
39848;SDS011;25518;47.878;15.914;2022-07-23T11:15:18;5.15;;;4.00;;
39848;SDS011;25518;47.878;15.914;2022-07-23T11:17:35;5.07;;;3.83;;
39848;SDS011;25518;47.878;15.914;2022-07-23T11:22:38;6.18;;;3.83;;
39848;SDS011;25518;47.878;15.914;2022-07-23T11:25:05;4.88;;;3.45;;
39848;SDS011;25518;47.878;15.914;2022-07-23T11:27:40;6.00;;;3.70;;
39848;SDS011;25518;47.878;15.914;2022-07-23T11:30:07;5.20;;;3.30;;
39848;SDS011;25518;47.878;15.914;2022-07-23T11:32:35;4.37;;;3.20;;
39848;SDS011;25518;47.878;15.914;2022-07-23T11:35:17;6.05;;;3.80;;
39848;SDS011;25518;47.878;15.914;2022-07-23T11:37:45;5.90;;;3.30;;
39848;SDS011;25518;47.878;15.914;2022-07-23T11:40:14;3.80;;;2.90;;
39848;SDS011;25518;47.878;15.914;2022-07-23T11:43:11;4.50;;;3.27;;
39848;SDS011;25518;47.878;15.914;2022-07-23T11:45:43;4.67;;;3.40;;
39848;SDS011;25518;47.878;15.914;2022-07-23T11:48:15;6.25;;;3.70;;
39848;SDS011;25518;47.878;15.914;2022-07-23T11:50:42;5.18;;;3.15;;
39848;SDS011;25518;47.878;15.914;2022-07-23T11:53:08;4.97;;;3.33;;
39848;SDS011;25518;47.878;15.914;2022-07-23T11:55:34;4.72;;;3.30;;
39848;SDS011;25518;47.878;15.914;2022-07-23T11:58:00;5.82;;;3.38;;
39848;SDS011;25518;47.878;15.914;2022-07-23T12:00:28;4.82;;;3.13;;
39848;SDS011;25518;47.878;15.914;2022-07-23T12:02:56;4.10;;;2.83;;
39848;SDS011;25518;47.878;15.914;2022-07-23T12:05:25;5.00;;;3.35;;
39848;SDS011;25518;47.878;15.914;2022-07-23T12:07:52;5.07;;;3.22;;
39848;SDS011;25518;47.878;15.914;2022-07-23T12:12:46;4.80;;;3.10;;
39848;SDS011;25518;47.878;15.914;2022-07-23T12:15:15;5.38;;;2.80;;
39848;SDS011;25518;47.878;15.914;2022-07-23T12:17:42;3.70;;;2.35;;
39848;SDS011;25518;47.878;15.914;2022-07-23T12:20:09;3.85;;;2.60;;
39848;SDS011;25518;47.878;15.914;2022-07-23T12:22:40;3.75;;;2.53;;
39848;SDS011;25518;47.878;15.914;2022-07-23T12:25:08;4.28;;;2.70;;
39848;SDS011;25518;47.878;15.914;2022-07-23T12:27:35;5.15;;;2.67;;
39848;SDS011;25518;47.878;15.914;2022-07-23T12:32:48;3.60;;;2.58;;
39848;SDS011;25518;47.878;15.914;2022-07-23T12:35:15;4.07;;;2.63;;
39848;SDS011;25518;47.878;15.914;2022-07-23T12:37:42;4.70;;;2.70;;
39848;SDS011;25518;47.878;15.914;2022-07-23T12:40:25;4.82;;;2.28;;
39848;SDS011;25518;47.878;15.914;2022-07-23T12:42:54;3.80;;;2.35;;
39848;SDS011;25518;47.878;15.914;2022-07-23T12:45:21;5.60;;;2.53;;
39848;SDS011;25518;47.878;15.914;2022-07-23T12:47:52;4.20;;;2.55;;
39848;SDS011;25518;47.878;15.914;2022-07-23T12:53:06;5.28;;;2.67;;
39848;SDS011;25518;47.878;15.914;2022-07-23T12:55:33;3.50;;;2.23;;
39848;SDS011;25518;47.878;15.914;2022-07-23T12:58:04;3.70;;;2.10;;
39848;SDS011;25518;47.878;15.914;2022-07-23T13:00:31;3.55;;;2.20;;
39848;SDS011;25518;47.878;15.914;2022-07-23T13:02:58;4.03;;;2.72;;
39848;SDS011;25518;47.878;15.914;2022-07-23T13:05:24;3.45;;;2.30;;
39848;SDS011;25518;47.878;15.914;2022-07-23T13:07:50;3.60;;;2.30;;
39848;SDS011;25518;47.878;15.914;2022-07-23T13:10:16;4.43;;;2.30;;
39848;SDS011;25518;47.878;15.914;2022-07-23T13:12:42;4.75;;;2.60;;
39848;SDS011;25518;47.878;15.914;2022-07-23T13:15:09;4.35;;;2.60;;
39848;SDS011;25518;47.878;15.914;2022-07-23T13:17:35;4.68;;;2.70;;
39848;SDS011;25518;47.878;15.914;2022-07-23T13:20:02;3.70;;;2.50;;
39848;SDS011;25518;47.878;15.914;2022-07-23T13:22:28;4.47;;;3.17;;
39848;SDS011;25518;47.878;15.914;2022-07-23T13:24:55;4.57;;;2.78;;
39848;SDS011;25518;47.878;15.914;2022-07-23T13:27:21;4.33;;;2.80;;
39848;SDS011;25518;47.878;15.914;2022-07-23T13:29:47;4.40;;;2.63;;
39848;SDS011;25518;47.878;15.914;2022-07-23T13:32:13;4.37;;;3.00;;
39848;SDS011;25518;47.878;15.914;2022-07-23T13:34:40;5.17;;;2.80;;
39848;SDS011;25518;47.878;15.914;2022-07-23T13:37:06;3.85;;;2.75;;
39848;SDS011;25518;47.878;15.914;2022-07-23T13:39:32;4.97;;;3.03;;
39848;SDS011;25518;47.878;15.914;2022-07-23T13:41:58;4.72;;;3.05;;
39848;SDS011;25518;47.878;15.914;2022-07-23T13:44:24;4.00;;;2.60;;
39848;SDS011;25518;47.878;15.914;2022-07-23T13:46:51;4.25;;;2.70;;
39848;SDS011;25518;47.878;15.914;2022-07-23T13:49:17;3.55;;;2.55;;
39848;SDS011;25518;47.878;15.914;2022-07-23T13:51:43;3.88;;;3.20;;
39848;SDS011;25518;47.878;15.914;2022-07-23T13:54:09;3.45;;;2.60;;
39848;SDS011;25518;47.878;15.914;2022-07-23T13:56:36;5.00;;;3.30;;
39848;SDS011;25518;47.878;15.914;2022-07-23T13:59:02;4.45;;;2.90;;
39848;SDS011;25518;47.878;15.914;2022-07-23T14:01:28;4.88;;;3.30;;
39848;SDS011;25518;47.878;15.914;2022-07-23T14:03:54;5.00;;;2.90;;
39848;SDS011;25518;47.878;15.914;2022-07-23T14:06:21;4.28;;;3.00;;
39848;SDS011;25518;47.878;15.914;2022-07-23T14:08:47;4.60;;;3.00;;
39848;SDS011;25518;47.878;15.914;2022-07-23T14:11:13;4.22;;;3.08;;
39848;SDS011;25518;47.878;15.914;2022-07-23T14:13:39;4.57;;;2.95;;
39848;SDS011;25518;47.878;15.914;2022-07-23T14:16:06;3.90;;;3.00;;
39848;SDS011;25518;47.878;15.914;2022-07-23T14:18:32;5.07;;;3.17;;
39848;SDS011;25518;47.878;15.914;2022-07-23T14:20:58;4.47;;;3.10;;
39848;SDS011;25518;47.878;15.914;2022-07-23T14:23:24;4.70;;;3.17;;
39848;SDS011;25518;47.878;15.914;2022-07-23T14:25:50;4.20;;;2.90;;
39848;SDS011;25518;47.878;15.914;2022-07-23T14:28:17;4.28;;;2.92;;
39848;SDS011;25518;47.878;15.914;2022-07-23T14:30:43;5.85;;;2.90;;
39848;SDS011;25518;47.878;15.914;2022-07-23T14:33:09;4.28;;;3.10;;
39848;SDS011;25518;47.878;15.914;2022-07-23T14:35:38;5.20;;;3.05;;
39848;SDS011;25518;47.878;15.914;2022-07-23T14:38:04;4.35;;;2.97;;
39848;SDS011;25518;47.878;15.914;2022-07-23T14:40:30;4.65;;;3.13;;
39848;SDS011;25518;47.878;15.914;2022-07-23T14:42:57;5.57;;;3.17;;
39848;SDS011;25518;47.878;15.914;2022-07-23T14:45:23;4.75;;;2.80;;
39848;SDS011;25518;47.878;15.914;2022-07-23T14:47:49;4.10;;;3.15;;
39848;SDS011;25518;47.878;15.914;2022-07-23T14:50:16;4.05;;;3.10;;
39848;SDS011;25518;47.878;15.914;2022-07-23T14:52:42;4.70;;;2.90;;
39848;SDS011;25518;47.878;15.914;2022-07-23T14:55:08;4.05;;;2.85;;
39848;SDS011;25518;47.878;15.914;2022-07-23T14:57:35;3.65;;;2.80;;
39848;SDS011;25518;47.878;15.914;2022-07-23T15:00:01;4.40;;;2.90;;
39848;SDS011;25518;47.878;15.914;2022-07-23T15:02:28;6.35;;;2.67;;
39848;SDS011;25518;47.878;15.914;2022-07-23T15:04:54;5.47;;;2.78;;
39848;SDS011;25518;47.878;15.914;2022-07-23T15:07:23;3.97;;;2.80;;
39848;SDS011;25518;47.878;15.914;2022-07-23T15:09:49;4.63;;;3.00;;
39848;SDS011;25518;47.878;15.914;2022-07-23T15:12:15;4.18;;;2.80;;
39848;SDS011;25518;47.878;15.914;2022-07-23T15:14:41;4.47;;;2.67;;
39848;SDS011;25518;47.878;15.914;2022-07-23T15:17:08;5.07;;;2.83;;